Time;durP1;ratioP1;P1;durP2;ratioP2;P2;SDS_P1;SDS_P2;PMS_P1;PMS_P2;Temp;Humidity;BMP_temperature;BMP_pressure;BME280_temperature;BME280_humidity;BME280_pressure;Samples;Min_cycle;Max_cycle;Signal;HPM_P1;HPM_P2
2022/05/27 00:01:29;;;;;;;13.23;3.78;;;13.00;99.90;;;;;;5013077;28;20038;-84
2022/05/27 00:04:00;;;;;;;10.30;4.30;;;13.00;99.90;;;;;;4994855;28;20050;-85
2022/05/27 00:06:27;;;;;;;13.23;4.47;;;13.00;99.90;;;;;;5012300;28;20486;-85
2022/05/27 00:08:53;;;;;;;11.35;4.90;;;12.90;99.90;;;;;;4995114;28;20050;-84
2022/05/27 00:11:22;;;;;;;12.27;5.30;;;12.90;99.90;;;;;;4995069;28;20081;-85
2022/05/27 00:13:49;;;;;;;12.60;5.15;;;13.00;99.90;;;;;;4994230;28;20046;-84
2022/05/27 00:16:15;;;;;;;12.35;5.45;;;12.90;99.90;;;;;;4995179;28;20050;-84
2022/05/27 00:18:41;;;;;;;13.35;5.82;;;12.80;99.90;;;;;;4995227;28;20038;-84
2022/05/27 00:21:07;;;;;;;15.68;5.70;;;12.80;99.90;;;;;;5012099;28;20073;-85
2022/05/27 00:23:33;;;;;;;14.57;5.65;;;12.80;99.90;;;;;;5012386;28;20049;-85
2022/05/27 00:25:59;;;;;;;13.68;5.55;;;12.80;99.90;;;;;;5012098;28;20454;-86
2022/05/27 00:28:24;;;;;;;18.42;6.00;;;12.90;99.90;;;;;;4994356;28;20077;-84
2022/05/27 00:30:50;;;;;;;12.13;4.90;;;12.90;99.90;;;;;;5012255;28;20049;-85
2022/05/27 00:33:16;;;;;;;14.05;5.20;;;12.90;99.90;;;;;;4994921;28;20057;-84
2022/05/27 00:35:42;;;;;;;17.63;5.22;;;12.90;99.90;;;;;;4993763;28;20042;-85
2022/05/27 00:38:07;;;;;;;12.95;4.57;;;12.80;99.90;;;;;;4994796;28;20068;-85
2022/05/27 00:40:42;;;;;;;11.00;4.70;;;12.80;99.90;;;;;;5010553;28;20038;-86
2022/05/27 00:43:08;;;;;;;12.85;4.75;;;12.80;99.90;;;;;;4994775;28;20046;-85
2022/05/27 00:45:37;;;;;;;12.02;4.60;;;12.70;99.90;;;;;;5012504;28;20049;-85
2022/05/27 00:48:06;;;;;;;14.32;4.85;;;12.80;99.90;;;;;;5011636;28;20073;-85
2022/05/27 00:50:40;;;;;;;13.90;4.53;;;12.80;99.90;;;;;;5012832;28;20069;-86
2022/05/27 00:53:08;;;;;;;14.50;4.72;;;12.70;99.90;;;;;;5011997;28;20042;-86
2022/05/27 00:55:40;;;;;;;10.25;4.13;;;12.80;99.90;;;;;;4994442;28;20076;-85
2022/05/27 00:58:28;;;;;;;11.07;3.97;;;12.70;99.90;;;;;;5012055;28;20513;-86
2022/05/27 01:00:55;;;;;;;13.45;4.40;;;12.70;99.90;;;;;;4994624;28;20053;-85
2022/05/27 01:03:22;;;;;;;12.85;4.25;;;12.70;99.90;;;;;;5011686;28;20512;-85
2022/05/27 01:05:47;;;;;;;14.20;4.82;;;12.70;99.90;;;;;;5015698;28;20053;-85
2022/05/27 01:08:17;;;;;;;11.30;4.40;;;12.70;99.90;;;;;;5015886;28;20045;-85
2022/05/27 01:11:20;;;;;;;10.38;4.65;;;12.70;99.90;;;;;;4997509;28;20127;-86
2022/05/27 01:14:14;;;;;;;11.70;4.05;;;12.70;99.90;;;;;;4929208;28;20651;-85
2022/05/27 01:17:07;;;;;;;13.82;4.65;;;12.70;99.90;;;;;;5014704;28;20042;-85
2022/05/27 01:22:41;;;;;;;14.95;5.13;;;12.60;99.90;;;;;;5015550;28;20042;-85
2022/05/27 01:25:13;;;;;;;10.90;4.43;;;12.50;99.90;;;;;;4997434;28;20041;-86
2022/05/27 01:28:04;;;;;;;13.50;4.70;;;12.50;99.90;;;;;;4998085;28;20536;-86
2022/05/27 01:30:53;;;;;;;13.30;4.60;;;12.50;99.90;;;;;;4996847;28;20046;-86
2022/05/27 01:33:38;;;;;;;13.70;4.60;;;12.50;99.90;;;;;;4998269;28;20627;-87
2022/05/27 01:36:06;;;;;;;15.00;5.30;;;12.50;99.90;;;;;;4998146;28;20119;-86
2022/05/27 01:38:45;;;;;;;14.82;5.47;;;12.50;99.90;;;;;;5014525;28;20065;-86
2022/05/27 01:41:25;;;;;;;12.55;5.15;;;12.70;99.90;;;;;;5015538;28;20398;-86
2022/05/27 01:44:05;;;;;;;13.55;5.50;;;12.60;99.90;;;;;;4996897;28;20057;-88
2022/05/27 01:46:30;;;;;;;14.05;5.55;;;12.60;99.90;;;;;;5001079;28;20091;-87
2022/05/27 01:49:18;;;;;;;14.07;5.25;;;12.60;99.90;;;;;;5015301;28;20049;-86
2022/05/27 01:51:54;;;;;;;11.63;5.53;;;12.60;99.90;;;;;;4996661;28;20049;-87
2022/05/27 01:54:32;;;;;;;14.93;6.00;;;12.40;99.90;;;;;;5015362;28;20087;-87
2022/05/27 01:57:17;;;;;;;14.55;6.45;;;12.40;99.90;;;;;;5017730;28;20045;-86
2022/05/27 02:00:05;;;;;;;15.07;6.22;;;12.40;99.90;;;;;;5014031;28;20046;-88
2022/05/27 02:02:32;;;;;;;15.25;5.65;;;12.40;99.90;;;;;;4995507;28;20045;-87
2022/05/27 02:05:05;;;;;;;14.32;6.53;;;12.30;99.90;;;;;;4995825;28;20125;-86
2022/05/27 02:07:52;;;;;;;15.32;6.55;;;12.30;99.90;;;;;;4997155;28;20164;-88
2022/05/27 02:10:51;;;;;;;16.50;6.68;;;12.30;99.90;;;;;;5014523;28;20124;-88
2022/05/27 02:13:34;;;;;;;16.05;7.07;;;12.20;99.90;;;;;;5000673;28;20046;-87
2022/05/27 02:16:01;;;;;;;15.50;6.80;;;12.20;99.90;;;;;;4995896;28;20061;-87
2022/05/27 02:18:39;;;;;;;16.05;7.20;;;12.20;99.90;;;;;;4997022;28;20544;-87
2022/05/27 02:21:12;;;;;;;19.15;6.65;;;12.20;99.90;;;;;;5013856;28;20137;-86
2022/05/27 02:23:44;;;;;;;16.77;6.80;;;12.10;99.90;;;;;;5014595;28;20082;-86
2022/05/27 02:26:16;;;;;;;17.52;6.60;;;12.10;99.90;;;;;;4995900;28;20037;-87
2022/05/27 02:28:45;;;;;;;15.85;6.30;;;12.10;99.90;;;;;;5014344;28;20092;-86
2022/05/27 02:31:22;;;;;;;16.25;6.40;;;12.10;99.90;;;;;;4996807;28;20092;-87
2022/05/27 02:37:01;;;;;;;15.82;6.72;;;12.00;99.90;;;;;;5014261;28;20128;-87
2022/05/27 02:39:27;;;;;;;15.70;6.40;;;12.20;99.90;;;;;;4995664;28;20061;-87
2022/05/27 02:42:03;;;;;;;17.90;6.45;;;12.20;99.90;;;;;;5012807;28;20374;-86
2022/05/27 02:44:55;;;;;;;20.13;6.75;;;11.90;99.90;;;;;;4997074;28;20050;-86
2022/05/27 02:47:31;;;;;;;16.88;6.72;;;11.90;99.90;;;;;;4996082;28;20054;-87
2022/05/27 02:50:02;;;;;;;17.30;6.38;;;11.80;99.90;;;;;;4996064;28;20053;-87
2022/05/27 02:52:37;;;;;;;19.17;6.82;;;11.90;99.90;;;;;;5013706;28;20475;-87
2022/05/27 02:55:23;;;;;;;19.70;7.30;;;11.90;99.90;;;;;;5013156;28;20052;-86
2022/05/27 02:57:51;;;;;;;17.65;6.55;;;11.80;99.90;;;;;;4988844;28;20054;-87
2022/05/27 03:00:24;;;;;;;17.55;6.78;;;11.80;99.90;;;;;;4996477;28;20390;-87
2022/05/27 03:02:50;;;;;;;20.58;7.00;;;11.70;99.90;;;;;;5013042;28;20521;-87
2022/05/27 03:05:19;;;;;;;19.02;6.53;;;11.80;99.90;;;;;;5013778;28;20046;-87
2022/05/27 03:08:29;;;;;;;17.23;6.43;;;11.60;99.90;;;;;;4995664;28;20045;-87
2022/05/27 03:11:21;;;;;;;14.32;5.97;;;11.80;99.90;;;;;;4995982;28;20548;-87
2022/05/27 03:14:05;;;;;;;15.13;5.93;;;11.70;99.90;;;;;;4995604;28;20080;-87
2022/05/27 03:17:08;;;;;;;15.77;6.93;;;11.60;99.90;;;;;;5012657;28;20125;-87
2022/05/27 03:20:16;;;;;;;16.38;6.55;;;11.70;99.90;;;;;;4995741;28;20053;-87
2022/05/27 03:22:51;;;;;;;20.25;6.20;;;11.70;99.90;;;;;;5012098;28;20512;-87
2022/05/27 03:25:38;;;;;;;20.23;6.38;;;11.70;99.90;;;;;;5013644;28;20148;-87
2022/05/27 03:28:23;;;;;;;16.70;5.80;;;11.60;99.90;;;;;;5013351;28;20053;-87
2022/05/27 03:31:25;;;;;;;22.20;6.93;;;11.70;99.90;;;;;;5011917;28;20457;-87
2022/05/27 03:34:00;;;;;;;17.60;6.97;;;11.60;99.90;;;;;;4995332;28;20050;-86
2022/05/27 03:36:40;;;;;;;22.73;7.47;;;11.60;99.90;;;;;;5012610;28;20049;-87
2022/05/27 03:39:32;;;;;;;15.93;6.13;;;11.60;99.90;;;;;;5016882;28;20045;-87
2022/05/27 03:42:05;;;;;;;20.88;6.32;;;11.60;99.90;;;;;;4996576;28;20049;-87
2022/05/27 03:44:31;;;;;;;19.48;5.82;;;11.70;99.90;;;;;;4994846;28;20064;-87
2022/05/27 03:46:59;;;;;;;16.60;5.00;;;11.70;99.90;;;;;;4996129;28;20508;-88
2022/05/27 03:49:25;;;;;;;18.15;5.82;;;11.70;99.90;;;;;;4999405;28;20513;-87
2022/05/27 03:52:02;;;;;;;19.65;5.97;;;11.70;99.90;;;;;;5012107;28;20038;-88
2022/05/27 03:54:28;;;;;;;20.42;5.70;;;11.70;99.90;;;;;;5013044;28;20208;-87
2022/05/27 03:56:53;;;;;;;22.83;6.68;;;11.70;99.90;;;;;;4994873;28;20139;-87
2022/05/27 03:59:20;;;;;;;21.23;5.82;;;11.70;99.90;;;;;;4994187;28;20056;-88
2022/05/27 04:01:49;;;;;;;21.25;6.13;;;11.70;99.90;;;;;;4989094;28;20053;-87
2022/05/27 04:04:18;;;;;;;17.52;5.00;;;11.60;99.90;;;;;;4995558;28;20077;-87
2022/05/27 04:06:46;;;;;;;18.85;5.32;;;11.70;99.90;;;;;;4994973;28;20050;-87
2022/05/27 04:09:11;;;;;;;22.13;5.68;;;11.70;99.90;;;;;;5012842;28;20052;-88
2022/05/27 04:11:37;;;;;;;24.20;5.90;;;11.70;99.90;;;;;;5012315;28;20410;-88
2022/05/27 04:14:02;;;;;;;19.65;5.85;;;11.70;99.90;;;;;;4995371;28;20593;-88
2022/05/27 04:16:28;;;;;;;17.42;6.75;;;11.70;99.90;;;;;;5012850;28;20046;-88
2022/05/27 04:18:54;;;;;;;15.32;5.55;;;11.70;99.90;;;;;;4994438;28;20049;-88
2022/05/27 04:21:19;;;;;;;23.05;5.32;;;11.80;99.90;;;;;;4995269;28;20049;-88
2022/05/27 04:23:45;;;;;;;18.00;5.28;;;11.80;99.90;;;;;;4994311;28;20054;-88
2022/05/27 04:26:11;;;;;;;19.80;5.25;;;11.80;99.90;;;;;;5012075;28;20046;-88
2022/05/27 04:28:37;;;;;;;16.65;5.03;;;11.80;99.90;;;;;;4994910;28;20429;-89
2022/05/27 04:31:04;;;;;;;13.88;5.07;;;11.80;99.90;;;;;;4994754;28;20490;-88
2022/05/27 04:33:30;;;;;;;20.25;6.00;;;11.90;99.90;;;;;;4994471;28;20050;-88
2022/05/27 04:35:56;;;;;;;17.67;4.90;;;11.90;99.90;;;;;;5012075;28;20482;-88
2022/05/27 04:38:22;;;;;;;17.30;5.22;;;11.90;99.90;;;;;;5012961;28;20078;-88
2022/05/27 04:40:48;;;;;;;21.45;5.40;;;11.90;99.90;;;;;;4997730;28;20505;-88
2022/05/27 04:43:15;;;;;;;21.42;4.93;;;12.00;99.90;;;;;;4998760;28;20050;-88
2022/05/27 04:45:41;;;;;;;18.75;4.72;;;12.00;99.90;;;;;;4998333;28;20052;-88
2022/05/27 04:48:07;;;;;;;16.42;4.82;;;12.00;99.90;;;;;;4997931;28;20416;-88
2022/05/27 04:50:33;;;;;;;15.75;4.85;;;12.00;99.90;;;;;;4998939;28;20505;-88
2022/05/27 04:52:59;;;;;;;16.73;4.85;;;12.00;99.90;;;;;;4998259;28;20077;-89
2022/05/27 04:55:24;;;;;;;18.67;4.97;;;12.00;99.90;;;;;;4998130;28;20046;-88
2022/05/27 04:57:54;;;;;;;21.25;5.00;;;12.10;99.90;;;;;;5015776;28;20096;-88
2022/05/27 05:00:25;;;;;;;17.73;4.30;;;12.10;99.90;;;;;;4998789;28;20049;-88
2022/05/27 05:02:52;;;;;;;23.92;5.13;;;12.00;99.90;;;;;;5014880;28;20082;-88
2022/05/27 05:05:19;;;;;;;15.75;4.50;;;12.00;99.90;;;;;;5015848;28;20389;-88
2022/05/27 05:07:54;;;;;;;23.63;5.80;;;12.10;99.90;;;;;;4998409;28;20178;-88
2022/05/27 05:10:22;;;;;;;20.95;4.50;;;12.00;99.90;;;;;;4998659;28;20041;-88
2022/05/27 05:12:49;;;;;;;16.27;4.47;;;12.00;99.90;;;;;;4998028;28;20549;-88
2022/05/27 05:15:15;;;;;;;17.63;4.38;;;12.00;99.90;;;;;;4997553;28;20056;-89
2022/05/27 05:17:41;;;;;;;12.45;4.35;;;12.00;99.90;;;;;;4998045;28;20141;-87
2022/05/27 05:20:08;;;;;;;18.15;4.32;;;12.00;99.90;;;;;;5015962;28;20405;-88
2022/05/27 05:22:33;;;;;;;16.70;4.65;;;11.90;99.90;;;;;;4997386;28;20068;-88
2022/05/27 05:24:59;;;;;;;17.35;4.65;;;11.90;99.90;;;;;;4998001;28;20049;-88
2022/05/27 05:27:27;;;;;;;17.52;4.00;;;11.90;99.90;;;;;;4998048;28;20552;-88
2022/05/27 05:29:54;;;;;;;15.35;4.10;;;11.90;99.90;;;;;;5014207;28;20551;-88
2022/05/27 05:32:21;;;;;;;21.58;4.40;;;12.00;99.90;;;;;;5014411;28;20074;-88
2022/05/27 05:34:47;;;;;;;21.40;4.60;;;12.10;99.90;;;;;;5013987;28;20038;-88
2022/05/27 05:37:12;;;;;;;19.67;4.43;;;12.10;99.90;;;;;;5014508;28;20042;-90
2022/05/27 05:39:38;;;;;;;17.02;4.30;;;12.20;99.90;;;;;;5015179;28;20057;-90
2022/05/27 05:42:05;;;;;;;15.98;4.63;;;12.30;99.90;;;;;;4997243;28;20050;-87
2022/05/27 05:44:31;;;;;;;14.27;4.10;;;12.40;99.90;;;;;;5014329;28;20231;-87
2022/05/27 05:46:58;;;;;;;17.38;3.58;;;12.50;99.90;;;;;;5015580;28;20046;-94
2022/05/27 05:49:24;;;;;;;14.93;3.60;;;12.50;99.90;;;;;;4997555;28;20490;-88
2022/05/27 05:51:51;;;;;;;19.33;4.30;;;12.60;99.90;;;;;;4996436;28;20038;-88
2022/05/27 05:54:19;;;;;;;13.57;3.38;;;12.70;99.90;;;;;;4997223;28;20050;-88
2022/05/27 05:56:46;;;;;;;12.20;3.38;;;12.70;99.90;;;;;;5002228;28;20050;-89
2022/05/27 05:59:12;;;;;;;16.23;3.38;;;12.70;99.90;;;;;;5016435;28;20567;-86
2022/05/27 06:01:37;;;;;;;16.27;3.53;;;12.70;99.90;;;;;;4997230;28;20045;-85
2022/05/27 06:04:03;;;;;;;20.38;3.42;;;12.70;99.90;;;;;;4996805;28;20042;-85
2022/05/27 06:06:28;;;;;;;13.70;2.97;;;12.60;99.90;;;;;;5016662;28;20038;-85
2022/05/27 06:08:54;;;;;;;17.25;3.55;;;12.50;99.90;;;;;;4997374;28;20054;-86
2022/05/27 06:11:29;;;;;;;16.88;3.33;;;12.60;99.90;;;;;;5014243;28;20042;-90
2022/05/27 06:13:55;;;;;;;13.43;3.40;;;12.60;99.90;;;;;;4977459;28;20513;-90
2022/05/27 06:16:23;;;;;;;16.83;3.33;;;12.60;99.90;;;;;;4995364;28;20054;-92
2022/05/27 06:18:55;;;;;;;14.18;3.33;;;12.60;99.90;;;;;;4994248;28;20134;-92
2022/05/27 06:21:27;;;;;;;12.90;3.63;;;13.30;99.90;;;;;;4978236;28;20500;-89
2022/05/27 06:23:53;;;;;;;12.27;2.97;;;12.20;99.90;;;;;;4999631;28;20046;-93
2022/05/27 06:26:33;;;;;;;17.83;3.10;;;12.70;99.90;;;;;;4976833;28;20046;-90
2022/05/27 06:34:30;;;;;;;14.43;2.85;;;12.30;99.90;;;;;;5007367;23;19922;-89
2022/05/27 06:37:04;;;;;;;15.23;3.58;;;13.00;99.90;;;;;;5003940;28;20100;-90
2022/05/27 06:39:45;;;;;;;15.20;3.10;;;13.10;99.90;;;;;;5001379;28;20046;-91
2022/05/27 06:42:13;;;;;;;13.15;2.95;;;13.00;99.90;;;;;;4987246;28;20038;-91
2022/05/27 06:44:39;;;;;;;11.93;2.75;;;12.80;99.90;;;;;;4996108;28;20062;-88
2022/05/27 06:47:05;;;;;;;14.13;3.13;;;13.00;99.90;;;;;;5012947;28;20540;-90
2022/05/27 06:49:31;;;;;;;12.38;2.65;;;13.60;99.90;;;;;;5014989;28;20046;-92
2022/05/27 06:51:57;;;;;;;15.98;3.70;;;13.20;99.90;;;;;;4998423;28;20044;-93
2022/05/27 06:54:23;;;;;;;14.82;2.83;;;13.40;99.90;;;;;;5009982;23;20058;-92
2022/05/27 06:56:54;;;;;;;13.13;2.83;;;13.40;99.90;;;;;;5013698;23;20073;-92
2022/05/27 06:59:25;;;;;;;15.35;2.83;;;14.70;99.90;;;;;;5025639;28;20045;-96
2022/05/27 07:02:00;;;;;;;14.05;3.00;;;13.60;99.90;;;;;;5014579;28;20042;-96
2022/05/27 07:04:31;;;;;;;12.35;2.70;;;13.60;99.90;;;;;;5015552;28;20046;-94
2022/05/27 07:06:57;;;;;;;15.23;3.45;;;14.80;99.90;;;;;;5016489;28;20089;-93
2022/05/27 07:09:40;;;;;;;14.60;3.20;;;13.50;99.90;;;;;;5016523;23;20040;-94
2022/05/27 07:12:27;;;;;;;18.73;3.58;;;13.50;99.90;;;;;;5002051;28;20049;-95
2022/05/27 07:14:53;;;;;;;13.32;2.85;;;13.90;99.90;;;;;;4997956;28;20053;-92
2022/05/27 07:17:28;;;;;;;17.15;3.38;;;13.60;99.90;;;;;;4997886;28;20045;-95
2022/05/27 07:19:54;;;;;;;13.02;3.10;;;13.80;99.90;;;;;;5014476;28;20077;-93
2022/05/27 07:22:37;;;;;;;13.43;2.70;;;12.90;99.90;;;;;;4995693;28;20050;-90
2022/05/27 07:25:13;;;;;;;18.85;3.20;;;14.10;99.90;;;;;;4996195;28;20052;-92
2022/05/27 07:27:40;;;;;;;14.40;3.10;;;14.10;99.90;;;;;;4995974;28;20100;-91
2022/05/27 07:30:07;;;;;;;12.93;3.00;;;14.20;99.90;;;;;;4995980;28;20050;-91
2022/05/27 07:32:43;;;;;;;10.98;2.67;;;14.30;99.90;;;;;;4996060;28;20053;-91
2022/05/27 07:35:12;;;;;;;13.18;3.47;;;14.10;99.90;;;;;;5013588;28;20053;-91
2022/05/27 07:37:41;;;;;;;14.18;2.60;;;14.10;99.90;;;;;;5013630;28;20044;-91
2022/05/27 07:40:07;;;;;;;12.93;2.90;;;14.10;99.90;;;;;;4996308;28;20199;-92
2022/05/27 07:42:45;;;;;;;14.55;3.38;;;14.10;99.90;;;;;;4995608;28;20037;-92
2022/05/27 07:45:26;;;;;;;14.15;3.28;;;15.40;99.90;;;;;;4996297;28;20050;-92
2022/05/27 07:48:00;;;;;;;12.20;3.13;;;15.10;99.90;;;;;;5010911;28;20054;-92
2022/05/27 07:50:26;;;;;;;12.90;3.15;;;14.30;99.90;;;;;;5013263;28;20057;-89
2022/05/27 07:52:52;;;;;;;16.15;3.58;;;14.50;99.90;;;;;;5022220;28;20038;-92
2022/05/27 07:55:18;;;;;;;17.38;3.83;;;14.00;99.90;;;;;;5030041;28;20489;-96
2022/05/27 07:57:50;;;;;;;11.55;2.60;;;14.20;99.90;;;;;;4998306;28;20038;-96
2022/05/27 08:00:31;;;;;;;10.93;2.80;;;14.00;99.90;;;;;;5016288;28;20046;-94
2022/05/27 08:03:08;;;;;;;12.43;3.15;;;14.20;99.90;;;;;;5019741;28;20065;-96
2022/05/27 08:05:40;;;;;;;15.45;2.95;;;14.30;99.90;;;;;;5002982;28;20394;-94
2022/05/27 08:08:06;;;;;;;13.45;2.90;;;14.50;99.90;;;;;;5014351;28;20370;-96
2022/05/27 08:10:36;;;;;;;11.02;2.83;;;14.50;99.90;;;;;;5014633;28;20042;-96
2022/05/27 08:13:10;;;;;;;17.67;3.13;;;15.00;99.90;;;;;;5015965;28;20510;-95
2022/05/27 08:15:36;;;;;;;12.02;2.70;;;14.80;99.90;;;;;;5019561;28;20042;-96
2022/05/27 08:18:02;;;;;;;9.70;2.50;;;15.50;99.90;;;;;;5017806;28;20144;-95
2022/05/27 08:20:41;;;;;;;12.25;3.10;;;14.70;99.90;;;;;;5000524;28;20050;-96
2022/05/27 08:23:07;;;;;;;10.75;3.05;;;14.50;99.90;;;;;;5001413;28;20050;-94
2022/05/27 08:25:33;;;;;;;12.77;2.95;;;16.00;99.90;;;;;;5000306;28;20046;-93
2022/05/27 08:28:02;;;;;;;13.88;3.00;;;14.40;99.90;;;;;;5001834;28;20101;-96
2022/05/27 08:30:31;;;;;;;13.50;2.80;;;14.80;99.90;;;;;;5001361;28;20078;-92
2022/05/27 08:32:57;;;;;;;14.88;2.63;;;14.80;99.90;;;;;;4998066;28;20168;-92
2022/05/27 08:38:19;;;;;;;13.57;3.17;;;14.80;99.90;;;;;;4999159;28;20081;-91
2022/05/27 08:41:29;;;;;;;12.85;2.83;;;14.70;99.90;;;;;;5000269;28;20042;-90
2022/05/27 08:44:03;;;;;;;10.15;2.67;;;14.70;99.90;;;;;;5004424;28;20046;-93
2022/05/27 08:46:38;;;;;;;11.98;2.70;;;14.90;99.90;;;;;;4998882;28;20045;-94
2022/05/27 08:49:11;;;;;;;10.15;2.55;;;15.00;99.90;;;;;;5016979;28;20529;-94
2022/05/27 08:51:53;;;;;;;8.63;2.20;;;14.80;99.90;;;;;;4999207;28;20050;-88
2022/05/27 08:59:26;;;;;;;11.10;2.47;;;14.80;99.90;;;;;;4997578;28;20041;-93
2022/05/27 09:00:51;;;;;;;14.63;2.70;;;14.80;99.90;;;;;;5014509;28;20490;-93
2022/05/27 09:03:24;;;;;;;12.07;2.55;;;14.00;99.90;;;;;;5004322;23;20120;-90
2022/05/27 09:06:12;;;;;;;10.52;2.20;;;16.00;99.90;;;;;;5000686;28;20038;-95
2022/05/27 09:08:41;;;;;;;10.63;2.28;;;15.10;99.90;;;;;;4969287;28;20057;-91
2022/05/27 09:11:31;;;;;;;11.88;2.15;;;15.60;99.90;;;;;;4959619;28;20043;-90
2022/05/27 09:14:11;;;;;;;9.00;2.13;;;15.30;99.90;;;;;;4959184;28;20434;-93
2022/05/27 09:17:05;;;;;;;9.98;2.00;;;15.40;99.90;;;;;;4960794;28;20410;-89
2022/05/27 09:19:37;;;;;;;9.63;1.92;;;15.40;99.90;;;;;;4962138;28;20478;-89
2022/05/27 09:22:27;;;;;;;12.27;2.28;;;16.00;99.90;;;;;;4961883;28;20046;-87
2022/05/27 09:25:15;;;;;;;12.55;2.30;;;15.50;99.90;;;;;;4965082;28;20117;-88
2022/05/27 09:28:04;;;;;;;11.75;2.53;;;15.30;99.90;;;;;;5037113;23;20052;-86
2022/05/27 09:30:34;;;;;;;10.18;2.00;;;15.40;99.90;;;;;;5000844;28;20061;-86
2022/05/27 09:33:09;;;;;;;13.52;2.55;;;15.60;99.90;;;;;;4986036;28;20051;-86
2022/05/27 09:35:43;;;;;;;12.30;3.80;;;15.50;99.90;;;;;;4983161;28;20398;-86
2022/05/27 09:38:17;;;;;;;12.07;3.00;;;15.70;99.90;;;;;;4982465;28;20038;-86
2022/05/27 09:40:49;;;;;;;11.88;2.40;;;16.10;99.90;;;;;;5003527;28;20097;-86
2022/05/27 09:43:33;;;;;;;12.38;2.50;;;16.00;99.90;;;;;;4985941;28;20057;-86
2022/05/27 09:46:02;;;;;;;12.40;2.85;;;16.20;99.90;;;;;;4985742;28;20582;-86
2022/05/27 09:48:34;;;;;;;10.23;2.47;;;16.80;99.90;;;;;;4985635;28;20031;-86
2022/05/27 09:51:04;;;;;;;9.77;2.20;;;16.10;99.90;;;;;;4986594;28;20046;-86
2022/05/27 09:53:57;;;;;;;10.68;2.20;;;15.40;99.90;;;;;;4982857;28;20042;-87
2022/05/27 09:56:41;;;;;;;12.80;2.40;;;16.10;99.90;;;;;;4983496;28;20127;-88
2022/05/27 09:59:41;;;;;;;10.82;2.35;;;16.10;99.90;;;;;;5014264;23;20062;-88
2022/05/27 10:02:15;;;;;;;8.75;2.30;;;16.10;99.90;;;;;;4992583;28;20053;-86
2022/05/27 10:05:00;;;;;;;9.85;2.20;;;16.10;99.90;;;;;;5003051;28;20554;-89
2022/05/27 10:07:49;;;;;;;8.77;2.42;;;15.90;99.90;;;;;;5002290;23;20189;-88
2022/05/27 10:11:25;;;;;;;10.63;2.42;;;15.10;99.90;;;;;;4999212;28;20042;-86
2022/05/27 10:14:32;;;;;;;7.80;2.00;;;16.00;99.90;;;;;;4989138;28;20046;-88
2022/05/27 10:17:32;;;;;;;11.10;2.00;;;16.20;99.90;;;;;;5005546;28;20050;-88
2022/05/27 10:20:31;;;;;;;9.85;2.20;;;16.30;99.90;;;;;;4986944;28;20057;-88
2022/05/27 10:23:25;;;;;;;11.38;2.20;;;16.60;99.90;;;;;;5005990;28;20099;-89
2022/05/27 10:26:04;;;;;;;8.05;1.98;;;16.30;99.90;;;;;;4976999;28;20041;-85
2022/05/27 10:28:43;;;;;;;11.18;2.20;;;16.50;99.90;;;;;;5004993;28;20045;-87
2022/05/27 10:31:16;;;;;;;11.00;2.33;;;15.80;99.90;;;;;;4985021;28;20129;-88
2022/05/27 10:33:51;;;;;;;11.60;2.58;;;16.10;99.90;;;;;;5000884;28;20049;-90
2022/05/27 10:36:28;;;;;;;11.05;2.20;;;16.40;99.90;;;;;;4982560;28;20120;-89
2022/05/27 10:39:03;;;;;;;8.70;2.40;;;16.30;99.90;;;;;;4981399;28;20042;-90
2022/05/27 10:41:53;;;;;;;12.10;2.80;;;16.20;99.90;;;;;;4991147;28;20093;-89
2022/05/27 10:44:34;;;;;;;9.93;2.50;;;16.20;99.90;;;;;;4984292;28;20367;-90
2022/05/27 10:46:59;;;;;;;10.98;2.58;;;16.00;99.90;;;;;;4984586;28;20493;-90
2022/05/27 10:49:44;;;;;;;10.23;2.30;;;16.60;99.90;;;;;;4982597;28;20054;-89
2022/05/27 10:52:54;;;;;;;9.25;2.08;;;16.30;99.90;;;;;;4980330;28;20045;-92
2022/05/27 10:55:54;;;;;;;7.72;2.00;;;16.40;99.90;;;;;;4972538;28;20129;-89
2022/05/27 11:02:07;;;;;;;11.27;2.28;;;16.60;99.90;;;;;;4988916;28;20137;-90
2022/05/27 11:05:16;;;;;;;10.23;2.13;;;16.60;99.90;;;;;;4942708;28;20048;-88
2022/05/27 11:08:13;;;;;;;10.57;2.28;;;16.70;99.90;;;;;;4980248;28;20046;-88
2022/05/27 11:10:52;;;;;;;11.00;2.50;;;16.90;99.90;;;;;;5000547;28;20057;-89
2022/05/27 11:17:20;;;;;;;12.90;2.65;;;16.60;99.90;;;;;;4980221;28;20488;-87
2022/05/27 11:19:57;;;;;;;12.07;2.45;;;16.60;99.90;;;;;;4978282;28;20053;-89
2022/05/27 11:22:27;;;;;;;13.05;2.40;;;16.30;99.90;;;;;;4992926;28;20098;-89
2022/05/27 11:25:07;;;;;;;11.65;2.30;;;16.80;99.90;;;;;;4992696;28;20050;-89
2022/05/27 11:27:49;;;;;;;11.77;2.42;;;15.90;99.90;;;;;;4976021;28;20054;-89
2022/05/27 11:30:55;;;;;;;11.68;2.83;;;15.70;99.90;;;;;;5001775;28;20049;-88
2022/05/27 11:33:38;;;;;;;11.65;2.28;;;15.60;99.90;;;;;;4995513;28;20125;-89
2022/05/27 11:36:53;;;;;;;12.60;2.10;;;15.50;99.90;;;;;;4993916;28;20449;-89
2022/05/27 11:39:47;;;;;;;14.55;2.60;;;15.40;99.90;;;;;;4994056;23;20050;-89
2022/05/27 11:46:41;;;;;;;11.98;2.83;;;15.10;99.90;;;;;;4958256;28;20526;-89
2022/05/27 11:49:37;;;;;;;11.40;2.42;;;16.00;99.90;;;;;;4943230;29;20130;-89
2022/05/27 11:52:22;;;;;;;9.32;2.08;;;15.70;99.90;;;;;;4948832;29;20530;-89
2022/05/27 11:55:18;;;;;;;10.88;3.15;;;16.10;99.90;;;;;;4941100;29;20051;-89
2022/05/27 11:58:22;;;;;;;12.38;2.40;;;16.10;99.90;;;;;;4954995;29;20131;-89
2022/05/27 12:01:25;;;;;;;11.50;2.78;;;16.10;99.90;;;;;;4954841;29;20051;-89
2022/05/27 12:04:28;;;;;;;9.93;2.47;;;15.90;99.90;;;;;;4952096;29;20050;-90
2022/05/27 12:07:16;;;;;;;13.23;2.38;;;15.70;99.90;;;;;;4961295;23;20061;-89
2022/05/27 12:10:01;;;;;;;9.32;2.13;;;15.40;99.90;;;;;;4956168;28;20047;-90
2022/05/27 12:12:32;;;;;;;9.40;2.40;;;15.70;99.90;;;;;;4956409;28;20046;-89
2022/05/27 12:15:05;;;;;;;10.80;2.42;;;15.50;99.90;;;;;;4954111;28;20070;-89
2022/05/27 12:17:48;;;;;;;11.10;2.20;;;15.50;99.90;;;;;;4937531;29;20487;-93
2022/05/27 12:20:37;;;;;;;7.07;2.13;;;15.90;99.90;;;;;;4960798;28;20077;-89
2022/05/27 12:23:09;;;;;;;10.93;2.60;;;15.40;99.90;;;;;;4953059;28;20047;-89
2022/05/27 12:25:56;;;;;;;12.93;2.97;;;15.30;99.90;;;;;;4955856;28;20078;-90
2022/05/27 12:28:50;;;;;;;7.50;1.92;;;15.90;99.90;;;;;;4972287;28;20051;-87
2022/05/27 12:31:24;;;;;;;9.85;2.00;;;16.00;99.90;;;;;;4950844;28;20554;-90
2022/05/27 12:33:50;;;;;;;12.02;2.55;;;15.20;99.90;;;;;;4955540;28;20122;-89
2022/05/27 12:36:27;;;;;;;9.07;2.03;;;16.10;99.90;;;;;;4952976;28;20380;-91
2022/05/27 12:38:54;;;;;;;11.98;2.53;;;16.40;99.90;;;;;;4953999;28;20039;-89
2022/05/27 12:41:40;;;;;;;10.23;2.53;;;16.00;99.90;;;;;;4974288;28;20043;-90
2022/05/27 12:44:28;;;;;;;13.82;3.13;;;15.70;99.90;;;;;;4948940;29;20066;-89
2022/05/27 12:47:04;;;;;;;12.10;2.83;;;16.20;99.90;;;;;;4954928;29;20114;-89
2022/05/27 12:49:39;;;;;;;13.75;2.50;;;16.80;99.90;;;;;;4954366;29;20043;-88
2022/05/27 12:52:25;;;;;;;13.50;2.60;;;16.80;99.90;;;;;;4937516;29;20087;-89
2022/05/27 12:54:50;;;;;;;11.77;2.42;;;16.50;99.90;;;;;;4954225;29;20122;-89
2022/05/27 13:03:33;;;;;;;14.82;2.88;;;16.20;99.90;;;;;;4957807;29;20491;-89
2022/05/27 13:06:12;;;;;;;12.63;2.70;;;15.80;99.90;;;;;;4954631;29;20052;-89
2022/05/27 13:08:51;;;;;;;14.02;2.78;;;15.60;99.90;;;;;;4938718;29;20051;-89
2022/05/27 13:11:23;;;;;;;13.93;2.80;;;15.40;99.90;;;;;;4938814;29;20047;-89
2022/05/27 13:14:12;;;;;;;11.18;2.63;;;15.60;99.90;;;;;;4920564;29;20134;-88
2022/05/27 13:17:09;;;;;;;10.68;2.10;;;15.80;99.90;;;;;;4920947;29;20039;-89
2022/05/27 13:19:44;;;;;;;8.93;2.22;;;16.40;99.90;;;;;;4922872;29;20094;-89
2022/05/27 13:22:31;;;;;;;9.80;2.55;;;16.50;99.90;;;;;;4921458;29;20567;-88
2022/05/27 13:25:24;;;;;;;12.52;2.50;;;16.00;99.90;;;;;;4920733;29;20104;-89
2022/05/27 13:27:55;;;;;;;14.82;2.90;;;16.30;99.90;;;;;;4937309;29;20088;-89
2022/05/27 13:30:25;;;;;;;12.30;3.05;;;16.60;99.90;;;;;;4921290;29;20100;-89
2022/05/27 13:33:01;;;;;;;13.68;2.88;;;16.50;99.90;;;;;;4921048;29;20043;-88
2022/05/27 13:35:39;;;;;;;12.52;2.53;;;16.20;99.90;;;;;;4937227;29;20499;-90
2022/05/27 13:38:09;;;;;;;10.98;2.53;;;16.10;99.90;;;;;;4921250;29;20071;-88
2022/05/27 13:40:36;;;;;;;11.32;2.65;;;15.90;99.90;;;;;;4941910;29;20052;-89
2022/05/27 13:43:23;;;;;;;13.38;2.83;;;15.60;99.90;;;;;;4938153;29;20142;-88
2022/05/27 13:46:14;;;;;;;13.23;2.42;;;15.40;99.90;;;;;;4938345;29;20487;-88
2022/05/27 13:48:42;;;;;;;10.13;2.30;;;15.40;99.90;;;;;;4937009;29;20066;-89
2022/05/27 13:51:11;;;;;;;13.07;2.72;;;15.30;99.90;;;;;;4925331;29;20056;-88
2022/05/27 13:53:38;;;;;;;12.73;2.60;;;15.70;99.90;;;;;;4938560;29;20044;-88
2022/05/27 13:56:25;;;;;;;11.55;2.70;;;15.70;99.90;;;;;;4919945;29;20440;-89
2022/05/27 13:59:01;;;;;;;11.57;2.47;;;15.70;99.90;;;;;;4920560;29;20055;-88